Time;durP1;ratioP1;P1;durP2;ratioP2;P2;SDS_P1;SDS_P2;PMS_P1;PMS_P2;Temp;Humidity;BMP_temperature;BMP_pressure;BME280_temperature;BME280_humidity;BME280_pressure;Samples;Min_cycle;Max_cycle;Signal;HPM_P1;HPM_P2
2023/07/06 00:01:24;;;;;;;4.40;1.92;;;;;;;14.24;73.30;97410.25;5047389;28;20049;-55
2023/07/06 00:03:51;;;;;;;3.88;1.70;;;;;;;14.18;73.94;97410.25;5041722;28;20037;-52
2023/07/06 00:06:18;;;;;;;3.90;1.60;;;;;;;14.28;71.99;97404.00;5048440;28;20067;-52
2023/07/06 00:08:45;;;;;;;3.85;1.70;;;;;;;14.37;71.92;97404.22;5039746;28;20042;-57
2023/07/06 00:11:11;;;;;;;5.15;1.92;;;;;;;14.44;71.30;97407.50;5040563;28;20045;-57
2023/07/06 00:13:39;;;;;;;3.03;1.50;;;;;;;14.37;73.02;97411.59;5053422;28;20658;-56
2023/07/06 00:16:06;;;;;;;3.75;1.90;;;;;;;14.32;72.63;97412.41;5043734;28;20037;-55
2023/07/06 00:18:33;;;;;;;4.72;1.65;;;;;;;14.35;72.68;97411.03;5041828;28;20664;-55
2023/07/06 00:21:00;;;;;;;10.95;2.50;;;;;;;14.28;73.17;97414.06;5034781;28;20041;-56
2023/07/06 00:23:26;;;;;;;4.35;1.70;;;;;;;14.18;73.85;97423.06;5045971;28;20038;-55
2023/07/06 00:25:53;;;;;;;3.75;1.60;;;;;;;14.14;73.97;97420.06;5033882;28;20128;-55
2023/07/06 00:28:24;;;;;;;5.03;1.50;;;;;;;13.95;75.55;97413.53;5043198;28;20034;-56
2023/07/06 00:33:21;;;;;;;6.20;1.73;;;;;;;14.05;74.60;97403.47;5040954;28;20128;-53
2023/07/06 00:35:48;;;;;;;3.30;1.45;;;;;;;14.10;73.68;97405.38;5041535;28;20111;-54
2023/07/06 00:38:21;;;;;;;5.95;2.00;;;;;;;14.29;71.54;97408.34;5041638;28;20048;-54
2023/07/06 00:40:50;;;;;;;3.15;1.40;;;;;;;14.40;71.56;97413.75;5041813;28;20526;-57
2023/07/06 00:43:23;;;;;;;4.13;1.70;;;;;;;14.43;71.84;97413.22;5046328;28;20095;-55
2023/07/06 00:45:53;;;;;;;3.63;1.52;;;;;;;14.52;69.88;97414.25;5038517;28;20527;-56
2023/07/06 00:48:26;;;;;;;3.00;1.42;;;;;;;14.51;71.10;97407.19;5044086;28;20041;-56
2023/07/06 00:50:56;;;;;;;4.30;1.75;;;;;;;14.60;69.84;97414.81;5044635;28;20120;-54
2023/07/06 00:53:27;;;;;;;4.72;2.03;;;;;;;14.56;70.25;97417.28;5037075;28;20041;-54
2023/07/06 00:55:58;;;;;;;5.72;1.63;;;;;;;14.53;70.53;97412.38;5053210;28;20044;-55
2023/07/06 00:58:31;;;;;;;4.30;1.70;;;;;;;14.47;71.32;97402.56;5063576;28;20075;-55
2023/07/06 01:01:02;;;;;;;6.50;1.63;;;;;;;14.45;72.09;97402.88;5040692;28;20120;-57
2023/07/06 01:03:30;;;;;;;2.88;1.50;;;;;;;14.32;71.99;97412.41;5042435;28;20439;-56
2023/07/06 01:06:02;;;;;;;4.57;1.55;;;;;;;14.29;73.01;97396.63;5044669;28;20047;-54
2023/07/06 01:08:29;;;;;;;;;;;;;;;14.28;72.94;97401.25;5052219;28;20037;-54
2023/07/06 01:10:59;;;;;;;3.60;1.70;;;;;;;14.24;72.81;97402.91;5042071;28;20474;-55
2023/07/06 01:13:26;;;;;;;4.00;1.60;;;;;;;14.25;72.54;97404.53;5047701;28;20120;-55
2023/07/06 01:16:18;;;;;;;4.57;1.40;;;;;;;14.23;72.87;97400.47;5042922;28;20040;-55
2023/07/06 01:19:07;;;;;;;5.60;1.90;;;;;;;14.23;73.51;97397.72;5038928;28;20103;-54
2023/07/06 01:22:17;;;;;;;7.97;2.33;;;;;;;14.29;72.72;97391.16;5045082;28;20045;-56
2023/07/06 01:25:11;;;;;;;3.67;1.85;;;;;;;14.22;73.37;97396.09;5037815;28;20051;-51
2023/07/06 01:27:59;;;;;;;4.13;1.48;;;;;;;14.13;74.15;97391.22;5046029;28;20439;-54
2023/07/06 01:30:46;;;;;;;4.75;1.40;;;;;;;14.13;73.77;97393.13;5036004;28;20051;-57
2023/07/06 01:33:23;;;;;;;3.75;1.65;;;;;;;14.14;73.46;97389.28;5043918;28;20041;-54
2023/07/06 01:35:57;;;;;;;5.15;1.58;;;;;;;13.96;74.93;97398.88;5035623;28;20129;-54
2023/07/06 01:38:25;;;;;;;4.38;2.10;;;;;;;13.98;74.37;97397.50;5042742;28;20694;-49
2023/07/06 01:40:51;;;;;;;4.05;1.90;;;;;;;13.97;74.65;97395.03;5041647;28;20142;-55
2023/07/06 01:43:20;;;;;;;3.00;1.50;;;;;;;13.91;74.44;97384.16;5047379;28;20068;-53
2023/07/06 01:45:48;;;;;;;5.30;2.05;;;;;;;13.86;75.46;97389.59;5041520;28;20045;-58
2023/07/06 01:48:15;;;;;;;4.22;1.90;;;;;;;13.63;77.22;97383.63;5049239;28;20137;-55
2023/07/06 01:50:56;;;;;;;4.07;1.58;;;;;;;13.58;77.18;97383.63;5045396;28;20119;-56
2023/07/06 01:53:35;;;;;;;4.93;1.73;;;;;;;13.53;78.25;97391.78;5041351;28;20045;-55
2023/07/06 01:56:10;;;;;;;4.25;1.60;;;;;;;13.43;79.04;97384.41;5044417;28;20044;-56
2023/07/06 01:58:46;;;;;;;4.10;1.88;;;;;;;13.35;79.63;97382.22;5040816;28;20672;-55
2023/07/06 02:01:17;;;;;;;4.85;1.52;;;;;;;13.43;78.27;97389.00;5042510;28;20048;-53
2023/07/06 02:03:44;;;;;;;3.33;1.70;;;;;;;13.36;78.23;97381.94;5041031;28;20124;-55
2023/07/06 02:06:12;;;;;;;3.75;1.75;;;;;;;13.32;79.01;97385.47;5045822;28;20034;-57
2023/07/06 02:08:41;;;;;;;3.30;1.48;;;;;;;13.25;79.58;97383.81;5033293;28;20044;-56
2023/07/06 02:11:14;;;;;;;3.67;1.90;;;;;;;13.25;79.89;97388.44;5038874;28;20037;-53
2023/07/06 02:13:41;;;;;;;5.20;1.98;;;;;;;13.32;79.09;97382.75;5042503;28;20147;-55
2023/07/06 02:16:09;;;;;;;7.50;2.03;;;;;;;13.29;79.05;97384.09;5045265;28;20045;-56
2023/07/06 02:18:36;;;;;;;4.22;1.60;;;;;;;13.34;78.65;97386.81;5047479;28;20041;-57
2023/07/06 02:21:04;;;;;;;4.32;1.75;;;;;;;13.34;78.53;97386.81;5037799;28;20124;-57
2023/07/06 02:23:30;;;;;;;4.10;2.00;;;;;;;13.35;79.37;97384.94;5043272;28;20052;-55
2023/07/06 02:25:57;;;;;;;3.78;1.73;;;;;;;13.37;79.25;97393.63;5042124;28;20152;-54
2023/07/06 02:28:24;;;;;;;4.00;1.67;;;;;;;13.33;79.44;97382.47;5048144;28;20045;-53
2023/07/06 02:30:54;;;;;;;4.03;1.83;;;;;;;13.29;79.39;97381.38;5053708;28;20640;-51
2023/07/06 02:33:21;;;;;;;5.15;2.28;;;;;;;13.20;80.21;97377.56;5041483;28;20040;-55
2023/07/06 02:35:48;;;;;;;5.78;2.05;;;;;;;13.23;79.70;97385.97;5048985;28;20072;-55
2023/07/06 02:38:20;;;;;;;4.38;1.73;;;;;;;13.35;79.11;97390.38;5039519;28;20045;-55
2023/07/06 02:40:49;;;;;;;4.78;2.05;;;;;;;13.25;79.54;97391.16;5049898;28;20049;-56
2023/07/06 02:43:16;;;;;;;5.07;1.92;;;;;;;13.29;79.44;97383.28;5043722;28;20079;-55
2023/07/06 02:45:47;;;;;;;4.45;2.05;;;;;;;13.12;81.06;97387.88;5053545;28;20052;-58
2023/07/06 02:48:17;;;;;;;4.45;1.85;;;;;;;12.99;81.57;97381.06;5041826;28;20041;-52
2023/07/06 02:50:51;;;;;;;4.63;2.05;;;;;;;12.97;82.06;97385.91;5039636;28;20139;-53
2023/07/06 02:53:19;;;;;;;3.45;1.80;;;;;;;12.75;83.56;97383.41;5038646;28;20052;-53
2023/07/06 02:55:46;;;;;;;4.32;2.00;;;;;;;12.69;84.43;97384.47;5038495;28;20048;-54
2023/07/06 02:58:14;;;;;;;3.28;1.90;;;;;;;12.73;84.45;97380.13;5039599;28;20045;-56
2023/07/06 03:00:40;;;;;;;5.00;1.92;;;;;;;12.69;83.53;97379.88;5039023;28;20069;-54
2023/07/06 03:03:08;;;;;;;3.85;1.70;;;;;;;12.81;82.60;97376.91;5035923;28;20029;-56
2023/07/06 03:05:35;;;;;;;5.25;1.60;;;;;;;12.90;82.09;97379.13;5035508;28;20427;-57
2023/07/06 03:08:05;;;;;;;6.70;2.13;;;;;;;12.72;82.87;97389.38;5050963;28;21584;-54
2023/07/06 03:10:32;;;;;;;4.75;2.05;;;;;;;12.75;82.72;97378.78;5036789;28;20048;-55
2023/07/06 03:13:01;;;;;;;4.28;1.60;;;;;;;12.75;83.25;97375.25;5041569;28;20108;-54
2023/07/06 03:15:28;;;;;;;4.57;2.25;;;;;;;12.69;83.63;97382.59;5035426;28;20069;-55
2023/07/06 03:17:55;;;;;;;6.70;1.80;;;;;;;12.63;83.97;97377.41;5046907;28;20040;-56
2023/07/06 03:20:22;;;;;;;3.17;1.70;;;;;;;12.63;83.52;97385.53;5050604;28;20075;-55
2023/07/06 03:22:51;;;;;;;4.25;1.70;;;;;;;12.41;84.95;97381.91;5048163;28;20041;-57
2023/07/06 03:25:23;;;;;;;4.82;2.10;;;;;;;12.48;84.82;97379.78;5043492;28;20049;-55
2023/07/06 03:27:50;;;;;;;3.15;1.60;;;;;;;12.56;84.16;97372.19;5053446;28;20044;-56
2023/07/06 03:30:20;;;;;;;4.00;2.03;;;;;;;12.51;84.67;97372.16;5055041;28;20052;-50
2023/07/06 03:32:47;;;;;;;4.20;2.45;;;;;;;12.43;84.77;97377.03;5044145;28;20824;-53
2023/07/06 03:35:15;;;;;;;3.30;1.88;;;;;;;12.36;85.67;97369.09;5048871;28;20218;-56
2023/07/06 03:37:43;;;;;;;4.22;1.88;;;;;;;12.28;86.27;97374.22;5043710;28;20413;-56
2023/07/06 03:40:10;;;;;;;5.53;1.92;;;;;;;12.31;85.91;97374.50;5047511;28;20133;-55
2023/07/06 03:42:40;;;;;;;5.85;2.20;;;;;;;12.36;85.20;97374.53;5047041;28;20073;-56
2023/07/06 03:45:08;;;;;;;4.38;1.80;;;;;;;12.26;86.05;97379.09;5051196;28;20045;-55
2023/07/06 03:47:37;;;;;;;5.13;2.13;;;;;;;12.12;86.57;97374.13;5029333;28;20041;-57
2023/07/06 03:50:10;;;;;;;4.60;1.80;;;;;;;12.05;87.14;97376.25;5048999;28;20128;-54
2023/07/06 03:52:40;;;;;;;5.30;1.80;;;;;;;12.09;87.39;97375.47;5043210;28;20072;-57
2023/07/06 03:55:14;;;;;;;4.03;1.80;;;;;;;12.27;85.26;97380.75;5037454;28;20168;-54
2023/07/06 03:57:42;;;;;;;3.60;1.70;;;;;;;12.28;85.83;97379.66;5049476;28;20049;-55
2023/07/06 04:00:24;;;;;;;4.43;1.85;;;;;;;12.14;86.90;97377.41;5048510;28;20052;-55
2023/07/06 04:02:57;;;;;;;4.28;1.73;;;;;;;12.20;86.37;97375.56;5042327;28;20536;-55
2023/07/06 04:05:32;;;;;;;3.75;1.80;;;;;;;12.35;85.37;97382.97;5053355;28;20110;-52
2023/07/06 04:08:03;;;;;;;4.40;1.70;;;;;;;12.48;85.01;97381.66;5039430;28;20753;-53
2023/07/06 04:10:32;;;;;;;5.28;1.83;;;;;;;12.38;85.70;97378.91;5045055;28;20136;-56
2023/07/06 04:12:59;;;;;;;5.50;2.30;;;;;;;12.43;85.31;97389.78;5045607;28;20048;-53
2023/07/06 04:15:26;;;;;;;5.13;2.00;;;;;;;12.39;85.45;97375.09;5043622;28;20045;-54
2023/07/06 04:17:53;;;;;;;3.47;1.60;;;;;;;12.53;85.29;97389.03;5039910;28;20128;-55
2023/07/06 04:20:26;;;;;;;5.05;2.17;;;;;;;12.54;84.88;97380.63;5036557;28;21649;-55
2023/07/06 04:22:55;;;;;;;4.50;2.03;;;;;;;12.44;85.68;97394.13;5049529;28;20100;-56
2023/07/06 04:25:26;;;;;;;4.35;1.90;;;;;;;12.49;85.78;97389.53;5038353;28;20059;-59
2023/07/06 04:27:53;;;;;;;5.22;2.00;;;;;;;12.57;85.27;97399.06;5044260;28;20065;-58
2023/07/06 04:30:20;;;;;;;4.18;2.38;;;;;;;12.49;85.04;97392.25;5048318;28;20045;-59
2023/07/06 04:32:51;;;;;;;6.60;1.95;;;;;;;12.52;84.96;97393.63;5053013;28;20509;-60
2023/07/06 04:35:21;;;;;;;5.73;2.30;;;;;;;12.67;84.66;97392.88;5037527;28;20079;-59
2023/07/06 04:37:50;;;;;;;3.70;1.90;;;;;;;12.78;83.80;97390.22;5042934;28;20048;-58
2023/07/06 04:40:18;;;;;;;6.10;2.13;;;;;;;12.91;83.33;97394.31;5037602;28;20096;-59
2023/07/06 04:42:46;;;;;;;4.45;1.80;;;;;;;12.88;83.52;97392.97;5042587;28;20074;-59
2023/07/06 04:45:13;;;;;;;3.80;1.85;;;;;;;12.87;84.16;97388.63;5043376;28;20052;-59
2023/07/06 04:47:41;;;;;;;4.10;1.90;;;;;;;12.86;84.06;97392.41;5042550;28;20053;-59
2023/07/06 04:50:17;;;;;;;4.28;2.08;;;;;;;12.92;83.01;97402.22;5039783;28;20499;-60
2023/07/06 04:52:45;;;;;;;4.68;2.20;;;;;;;13.00;83.27;97398.16;5043060;28;20435;-57
2023/07/06 04:55:13;;;;;;;4.15;1.90;;;;;;;13.03;83.33;97394.09;5036531;28;20520;-59
2023/07/06 04:57:41;;;;;;;4.55;2.00;;;;;;;13.19;82.87;97397.69;5046309;28;20132;-58
2023/07/06 05:00:16;;;;;;;4.15;2.00;;;;;;;13.32;82.21;97399.06;5042466;28;20041;-59
2023/07/06 05:02:42;;;;;;;5.95;1.88;;;;;;;13.40;81.72;97396.63;5044841;28;20047;-59
2023/07/06 05:05:13;;;;;;;6.60;1.75;;;;;;;13.53;80.62;97405.38;5040117;28;20044;-59
2023/07/06 05:07:41;;;;;;;4.18;2.00;;;;;;;13.59;80.57;97408.91;5043671;28;20044;-59
2023/07/06 05:10:08;;;;;;;8.90;2.47;;;;;;;13.64;80.12;97406.22;5040251;28;20044;-58
2023/07/06 05:12:35;;;;;;;7.25;2.05;;;;;;;13.77;79.88;97408.38;5040299;28;20098;-59
2023/07/06 05:15:03;;;;;;;5.50;1.70;;;;;;;13.79;79.62;97408.91;5036535;28;20060;-57
2023/07/06 05:17:29;;;;;;;6.05;2.33;;;;;;;13.89;79.75;97407.28;5041574;28;20060;-59
2023/07/06 05:19:56;;;;;;;4.28;1.95;;;;;;;14.01;78.81;97415.97;5039245;28;20048;-59
2023/07/06 05:22:23;;;;;;;6.43;2.53;;;;;;;14.18;78.21;97415.72;5047972;28;20041;-58
2023/07/06 05:24:51;;;;;;;6.28;2.05;;;;;;;14.21;77.87;97416.22;5043388;28;20500;-59
2023/07/06 05:27:18;;;;;;;4.90;2.00;;;;;;;14.31;76.72;97416.22;5036228;28;20120;-58
2023/07/06 05:29:45;;;;;;;4.30;1.63;;;;;;;14.54;74.56;97414.00;5040146;28;20082;-59
2023/07/06 05:32:11;;;;;;;6.20;1.60;;;;;;;14.68;74.31;97414.22;5046467;28;20113;-56
2023/07/06 05:34:38;;;;;;;3.45;1.67;;;;;;;14.83;73.17;97419.63;5054249;28;20490;-53
2023/07/06 05:37:04;;;;;;;4.25;2.13;;;;;;;14.97;72.21;97416.34;5036715;28;20059;-55
2023/07/06 05:39:31;;;;;;;4.63;1.90;;;;;;;15.10;71.14;97420.34;5044186;28;20338;-53
2023/07/06 05:41:57;;;;;;;3.08;1.52;;;;;;;15.19;70.71;97421.38;5044215;28;20056;-52
2023/07/06 05:44:24;;;;;;;3.40;1.35;;;;;;;15.31;68.37;97414.78;5041811;28;20045;-54
2023/07/06 05:46:50;;;;;;;5.57;1.70;;;;;;;15.44;68.79;97422.34;5043777;28;20056;-54
2023/07/06 05:49:17;;;;;;;3.42;1.35;;;;;;;15.62;68.62;97422.75;5045085;28;20130;-53
2023/07/06 05:51:44;;;;;;;3.90;1.70;;;;;;;15.73;66.82;97420.78;5039778;28;20355;-53
2023/07/06 05:54:10;;;;;;;5.63;1.50;;;;;;;15.87;65.59;97429.13;5046652;28;20040;-52
2023/07/06 05:56:37;;;;;;;5.10;1.60;;;;;;;16.01;63.36;97428.50;5038893;28;20068;-52
2023/07/06 05:59:04;;;;;;;5.10;1.58;;;;;;;16.16;63.22;97428.38;5040802;28;20046;-51
2023/07/06 06:01:32;;;;;;;4.43;1.77;;;;;;;16.28;62.82;97422.53;5033154;28;20036;-50
2023/07/06 06:04:01;;;;;;;6.95;1.58;;;;;;;16.41;61.51;97433.88;5037785;28;20034;-53
2023/07/06 06:06:28;;;;;;;7.97;3.30;;;;;;;16.54;61.49;97427.72;5035949;28;20661;-51
2023/07/06 06:08:56;;;;;;;3.63;1.30;;;;;;;16.72;58.48;97431.63;5039741;28;20512;-53
2023/07/06 06:11:23;;;;;;;2.95;1.17;;;;;;;16.89;57.86;97435.81;5036272;28;20127;-53
2023/07/06 06:13:50;;;;;;;5.03;1.27;;;;;;;17.02;56.95;97442.50;5038937;28;20078;-50
2023/07/06 06:16:17;;;;;;;2.60;1.02;;;;;;;17.14;57.53;97442.13;5040118;28;20049;-51
2023/07/06 06:18:44;;;;;;;3.72;1.80;;;;;;;17.28;56.18;97445.75;5040068;28;20045;-49
2023/07/06 06:21:10;;;;;;;4.63;1.63;;;;;;;17.46;56.77;97448.78;5035510;28;20037;-49
2023/07/06 06:23:37;;;;;;;6.00;1.38;;;;;;;17.62;55.60;97443.09;5032202;28;20127;-55
2023/07/06 06:26:04;;;;;;;2.72;0.82;;;;;;;17.74;55.34;97440.72;5038845;28;20037;-49
2023/07/06 06:28:30;;;;;;;5.18;1.48;;;;;;;17.70;54.60;97447.91;5037034;28;20045;-51
2023/07/06 06:30:57;;;;;;;4.75;1.30;;;;;;;17.57;54.48;97454.94;5039073;28;20060;-51
2023/07/06 06:33:23;;;;;;;4.88;1.33;;;;;;;17.62;55.12;97448.59;5041198;28;20079;-55
2023/07/06 06:35:50;;;;;;;5.18;1.45;;;;;;;17.67;54.64;97448.50;5038898;28;20564;-47
2023/07/06 06:38:17;;;;;;;3.83;1.08;;;;;;;17.71;55.04;97446.78;5038350;28;20124;-50
2023/07/06 06:40:44;;;;;;;2.42;0.93;;;;;;;17.78;53.87;97447.25;5044027;28;20104;-58
2023/07/06 06:43:11;;;;;;;4.68;1.25;;;;;;;17.85;53.58;97446.88;5035052;28;20037;-58
2023/07/06 06:45:38;;;;;;;4.30;1.42;;;;;;;17.93;53.54;97446.19;5039040;28;20048;-58
2023/07/06 06:48:05;;;;;;;5.97;1.50;;;;;;;17.99;54.66;97443.34;5038222;28;20124;-58
2023/07/06 06:50:31;;;;;;;5.82;1.30;;;;;;;18.04;53.59;97451.50;5036949;28;20052;-59
2023/07/06 06:52:58;;;;;;;4.10;2.33;;;;;;;18.03;53.66;97449.88;5042508;28;20065;-58
2023/07/06 06:55:24;;;;;;;4.00;1.30;;;;;;;18.17;52.21;97449.94;5043039;28;20048;-59
2023/07/06 06:57:52;;;;;;;2.50;0.93;;;;;;;18.02;53.25;97451.78;5040070;28;20045;-60
2023/07/06 07:00:19;;;;;;;3.60;1.30;;;;;;;17.88;53.76;97451.72;5038915;28;20072;-59
2023/07/06 07:02:45;;;;;;;4.35;1.50;;;;;;;17.89;53.79;97453.38;5045113;28;20495;-58
2023/07/06 07:05:15;;;;;;;4.88;2.42;;;;;;;17.98;54.40;97452.69;5048990;28;20039;-58
2023/07/06 07:07:42;;;;;;;3.85;1.38;;;;;;;18.21;55.19;97450.97;5036361;28;20073;-58
2023/07/06 07:10:09;;;;;;;2.40;1.13;;;;;;;18.17;55.31;97453.47;5041342;28;20051;-59
2023/07/06 07:12:40;;;;;;;3.88;1.25;;;;;;;18.42;54.89;97448.69;5045573;28;20080;-58
2023/07/06 07:15:09;;;;;;;9.85;1.65;;;;;;;18.55;53.93;97454.50;5041820;28;20419;-58
2023/07/06 07:17:38;;;;;;;3.05;1.20;;;;;;;18.57;53.90;97450.31;5050797;28;20056;-59
2023/07/06 07:20:06;;;;;;;7.75;1.58;;;;;;;18.62;52.85;97448.59;5044629;28;20037;-59
2023/07/06 07:22:33;;;;;;;3.08;1.15;;;;;;;18.71;52.64;97449.53;5038701;28;20533;-59
2023/07/06 07:25:00;;;;;;;4.75;1.40;;;;;;;18.87;52.30;97449.22;5047741;28;20051;-60
2023/07/06 07:27:28;;;;;;;4.68;1.50;;;;;;;18.99;52.39;97446.78;5048567;28;20149;-59
2023/07/06 07:29:56;;;;;;;4.38;1.20;;;;;;;18.99;51.23;97444.06;5047930;28;20382;-58
2023/07/06 07:32:23;;;;;;;3.13;1.40;;;;;;;18.92;50.92;97447.19;5045971;28;20068;-58
2023/07/06 07:34:52;;;;;;;5.68;1.60;;;;;;;18.99;51.07;97452.28;5037124;28;20045;-60
2023/07/06 07:37:19;;;;;;;2.42;1.10;;;;;;;19.06;51.01;97455.44;5041557;28;20052;-61
2023/07/06 07:39:46;;;;;;;3.95;1.45;;;;;;;19.16;50.34;97453.63;5045009;28;20037;-61
2023/07/06 07:42:13;;;;;;;4.63;1.50;;;;;;;19.27;50.35;97449.53;5037244;28;20514;-62
2023/07/06 07:44:47;;;;;;;6.03;1.67;;;;;;;19.45;50.38;97449.69;5035687;28;20038;-61
2023/07/06 07:47:18;;;;;;;5.13;1.52;;;;;;;19.47;48.78;97450.22;5040611;28;20041;-61
2023/07/06 07:49:46;;;;;;;3.45;1.50;;;;;;;19.52;49.95;97450.09;5039427;28;20048;-61
2023/07/06 07:52:14;;;;;;;3.85;1.17;;;;;;;19.66;49.69;97454.72;5048647;28;20048;-61
2023/07/06 07:54:42;;;;;;;6.40;1.60;;;;;;;19.73;49.65;97452.38;5046341;28;20121;-60
2023/07/06 07:57:09;;;;;;;2.38;1.15;;;;;;;19.93;49.76;97445.56;5042025;28;20076;-60
2023/07/06 07:59:36;;;;;;;3.85;1.38;;;;;;;20.06;48.48;97452.16;5036190;28;20042;-60
2023/07/06 08:02:03;;;;;;;4.03;1.20;;;;;;;20.22;48.83;97440.78;5042422;28;20102;-60
2023/07/06 08:04:30;;;;;;;4.47;1.20;;;;;;;20.30;47.59;97445.50;5044608;28;20440;-59
2023/07/06 08:06:56;;;;;;;4.10;1.48;;;;;;;20.22;47.40;97452.59;5038057;28;20144;-60
2023/07/06 08:09:23;;;;;;;3.83;1.40;;;;;;;20.09;47.28;97437.78;5044874;28;20038;-59
2023/07/06 08:11:50;;;;;;;3.17;1.30;;;;;;;20.03;47.43;97447.28;5042319;28;20547;-60
2023/07/06 08:14:33;;;;;;;3.70;1.35;;;;;;;19.97;47.44;97451.28;5035200;28;20120;-61
2023/07/06 08:17:00;;;;;;;3.35;1.27;;;;;;;20.03;47.34;97450.03;5044932;28;20049;-61
2023/07/06 08:19:27;;;;;;;5.07;1.40;;;;;;;20.04;47.87;97448.91;5045532;28;20048;-59
2023/07/06 08:22:14;;;;;;;3.67;1.30;;;;;;;20.09;47.42;97446.03;5044189;28;20124;-61
2023/07/06 08:24:40;;;;;;;9.95;2.78;;;;;;;19.97;47.58;97445.78;5045783;28;20037;-59
2023/07/06 08:27:07;;;;;;;5.40;1.83;;;;;;;20.02;47.66;97445.69;5041852;28;20044;-60
2023/07/06 08:29:33;;;;;;;7.10;1.77;;;;;;;20.17;48.33;97449.97;5052126;28;20770;-59
2023/07/06 08:32:00;;;;;;;4.18;1.40;;;;;;;20.17;47.97;97452.72;5044980;28;20128;-59
2023/07/06 08:34:26;;;;;;;3.15;1.98;;;;;;;20.38;47.54;97452.22;5051773;28;20138;-60
2023/07/06 08:36:55;;;;;;;4.65;1.60;;;;;;;20.34;47.66;97452.00;5049343;28;20041;-59
2023/07/06 08:39:22;;;;;;;5.18;1.60;;;;;;;20.32;47.50;97451.53;5046736;28;20099;-60
2023/07/06 08:41:49;;;;;;;3.53;1.40;;;;;;;20.46;47.70;97456.94;5031459;28;20041;-61
2023/07/06 08:44:17;;;;;;;6.15;1.50;;;;;;;20.61;46.79;97443.91;5037910;28;20068;-61
2023/07/06 08:46:50;;;;;;;3.10;1.30;;;;;;;20.56;46.07;97453.09;5034306;28;20509;-61
2023/07/06 08:49:22;;;;;;;4.20;1.50;;;;;;;20.61;46.54;97441.16;5038264;28;20374;-60
2023/07/06 08:51:52;;;;;;;4.55;1.70;;;;;;;20.68;45.59;97447.03;5051251;28;20098;-59
2023/07/06 08:54:21;;;;;;;3.10;1.40;;;;;;;20.64;46.21;97446.81;5043714;28;20095;-59
2023/07/06 08:56:49;;;;;;;4.10;1.60;;;;;;;20.59;45.68;97449.72;5036109;28;20136;-59
2023/07/06 08:59:54;;;;;;;3.38;1.40;;;;;;;20.49;45.28;97444.50;5042558;28;20598;-59
2023/07/06 09:02:24;;;;;;;3.30;1.30;;;;;;;20.50;45.68;97444.16;5048316;28;20054;-58
2023/07/06 09:04:53;;;;;;;3.25;1.48;;;;;;;20.53;45.86;97442.75;5051182;28;20265;-60
2023/07/06 09:07:28;;;;;;;4.38;1.60;;;;;;;20.58;45.79;97441.78;5044568;28;20033;-59
2023/07/06 09:09:56;;;;;;;4.03;1.60;;;;;;;20.50;44.95;97443.38;5042742;28;20037;-58
2023/07/06 09:12:39;;;;;;;6.30;1.73;;;;;;;20.60;46.11;97442.28;5046611;28;20094;-59
2023/07/06 09:15:10;;;;;;;3.88;1.40;;;;;;;20.67;45.10;97440.69;5040465;28;20043;-58
2023/07/06 09:17:50;;;;;;;5.05;1.70;;;;;;;20.65;45.05;97436.66;5042531;28;20045;-59
2023/07/06 09:20:20;;;;;;;7.78;1.60;;;;;;;20.58;44.57;97439.03;5044051;28;20046;-59
2023/07/06 09:22:48;;;;;;;4.18;1.73;;;;;;;20.56;45.98;97435.81;5046496;28;20136;-57
2023/07/06 09:25:17;;;;;;;4.63;1.52;;;;;;;20.52;45.65;97441.09;5042737;28;20408;-61
2023/07/06 09:27:48;;;;;;;4.72;1.30;;;;;;;20.46;45.53;97434.13;5049096;28;20125;-61
2023/07/06 09:30:29;;;;;;;3.20;1.23;;;;;;;20.21;45.84;97442.72;5048885;28;20127;-61
2023/07/06 09:33:04;;;;;;;4.50;1.60;;;;;;;20.14;47.17;97442.34;5044744;28;20041;-61
2023/07/06 09:35:34;;;;;;;3.85;1.65;;;;;;;20.22;46.38;97441.59;5034975;28;20045;-61
2023/07/06 09:38:03;;;;;;;5.55;1.60;;;;;;;20.34;46.24;97438.25;5045606;28;20036;-61
2023/07/06 09:40:30;;;;;;;4.03;1.67;;;;;;;20.70;45.44;97435.69;5038257;28;20041;-61
2023/07/06 09:42:59;;;;;;;3.50;1.50;;;;;;;21.07;44.43;97441.03;5048104;28;20495;-61
2023/07/06 09:45:29;;;;;;;4.75;1.48;;;;;;;21.44;44.21;97441.56;5041926;28;20577;-61
2023/07/06 09:48:29;;;;;;;5.78;1.55;;;;;;;21.78;42.72;97442.75;5041947;28;20099;-62
2023/07/06 09:51:06;;;;;;;4.85;1.52;;;;;;;22.10;41.08;97445.34;5041413;28;20044;-61
2023/07/06 09:53:39;;;;;;;4.90;1.50;;;;;;;21.99;41.03;97447.63;5045095;28;20114;-62
2023/07/06 09:56:11;;;;;;;3.95;1.48;;;;;;;21.94;39.70;97445.03;5045077;28;20040;-62
2023/07/06 09:58:37;;;;;;;7.03;1.40;;;;;;;22.14;40.22;97443.53;5044139;28;20073;-61
2023/07/06 10:01:22;;;;;;;3.05;1.50;;;;;;;22.15;40.03;97445.16;5039789;28;20047;-62
2023/07/06 10:04:01;;;;;;;7.20;2.13;;;;;;;22.37;40.35;97440.56;5045749;28;20098;-61
2023/07/06 10:07:06;;;;;;;3.17;1.40;;;;;;;22.24;40.57;97439.63;5046284;28;20042;-61
2023/07/06 10:09:43;;;;;;;7.97;2.03;;;;;;;;;;5031311;28;20677;-61
2023/07/06 10:12:22;;;;;;;4.18;1.73;;;;;;;21.90;41.71;97449.56;5035106;28;20044;-61
2023/07/06 10:14:50;;;;;;;3.83;1.35;;;;;;;21.92;42.28;97448.09;5046063;28;20310;-61
2023/07/06 10:17:37;;;;;;;4.07;1.80;;;;;;;21.49;43.10;97457.94;5047833;28;20102;-61
2023/07/06 10:20:12;;;;;;;6.53;1.50;;;;;;;21.67;42.74;97452.47;5046539;28;20041;-59
2023/07/06 10:22:58;;;;;;;4.13;1.70;;;;;;;21.67;42.08;97457.97;5035312;28;20055;-60
2023/07/06 10:25:36;;;;;;;4.50;1.48;;;;;;;21.78;42.88;97455.75;5046880;28;20553;-58
2023/07/06 10:28:13;;;;;;;2.50;1.20;;;;;;;22.07;42.05;97459.75;5037259;28;20042;-60
2023/07/06 10:30:45;;;;;;;3.85;1.40;;;;;;;22.11;41.86;97452.47;5036633;28;20451;-59
2023/07/06 10:33:23;;;;;;;6.00;1.52;;;;;;;22.30;41.04;97454.88;5043374;28;20119;-59
2023/07/06 10:35:52;;;;;;;5.72;2.65;;;;;;;22.09;41.61;97458.31;5039621;28;20051;-59
2023/07/06 10:38:19;;;;;;;5.30;1.77;;;;;;;22.15;40.91;97458.94;5038529;28;20033;-57
2023/07/06 10:40:51;;;;;;;5.72;1.80;;;;;;;22.32;41.25;97454.53;5046041;28;20037;-58
2023/07/06 10:43:20;;;;;;;;;;;;;;;22.31;40.91;97452.91;5043310;28;20040;-58
2023/07/06 10:45:53;;;;;;;4.93;1.60;;;;;;;22.36;40.49;97450.00;5046432;28;20016;-59
2023/07/06 10:48:26;;;;;;;6.80;1.95;;;;;;;22.32;40.57;97440.75;5044096;28;20049;-61
2023/07/06 10:51:18;;;;;;;4.00;1.52;;;;;;;22.24;40.23;97447.91;5051938;28;20037;-61
2023/07/06 10:54:06;;;;;;;4.93;1.73;;;;;;;22.13;42.12;97447.44;5040541;28;20047;-61
2023/07/06 10:56:41;;;;;;;10.48;2.13;;;;;;;21.90;41.53;97441.31;5045166;28;20090;-60
2023/07/06 10:59:16;;;;;;;3.88;1.60;;;;;;;22.24;40.99;97449.84;5049706;28;20068;-60
2023/07/06 11:01:45;;;;;;;6.10;1.65;;;;;;;22.60;39.62;97448.66;5031954;28;20037;-60
2023/07/06 11:04:40;;;;;;;4.43;1.67;;;;;;;22.96;39.09;97454.84;5039268;28;20140;-61
2023/07/06 11:07:09;;;;;;;4.57;1.73;;;;;;;22.72;38.79;97443.25;5051517;28;20116;-58
2023/07/06 11:10:07;;;;;;;3.33;1.33;;;;;;;22.94;38.45;97451.59;5034851;28;21449;-58
2023/07/06 11:12:51;;;;;;;4.88;1.58;;;;;;;22.64;39.41;97451.56;5049491;28;20068;-59
2023/07/06 11:15:21;;;;;;;3.58;1.48;;;;;;;22.64;38.96;97452.38;5046852;28;20076;-58
2023/07/06 11:17:50;;;;;;;3.28;1.55;;;;;;;22.79;39.01;97455.72;5048422;28;20048;-58
2023/07/06 11:20:23;;;;;;;4.18;2.10;;;;;;;22.84;39.31;97459.13;5042420;28;20069;-61
2023/07/06 11:22:56;;;;;;;5.63;1.60;;;;;;;22.77;39.99;97455.25;5044430;28;20051;-60
2023/07/06 11:25:28;;;;;;;4.45;2.05;;;;;;;22.75;39.95;97461.09;5043353;28;20045;-58
2023/07/06 11:27:59;;;;;;;4.68;1.52;;;;;;;22.68;39.74;97456.09;5042003;28;20068;-61
2023/07/06 11:30:54;;;;;;;4.80;1.60;;;;;;;22.48;40.14;97452.06;5043696;28;20041;-60
2023/07/06 11:33:30;;;;;;;4.15;1.70;;;;;;;22.25;40.68;97446.75;5045275;28;20040;-60
2023/07/06 11:36:08;;;;;;;3.20;1.30;;;;;;;22.54;39.92;97448.00;5045806;28;20068;-59
2023/07/06 11:38:56;;;;;;;4.20;1.80;;;;;;;22.38;40.28;97447.72;5049160;28;20493;-61
2023/07/06 11:41:35;;;;;;;4.78;1.30;;;;;;;22.50;40.11;97446.22;5035652;28;20041;-60
2023/07/06 11:44:10;;;;;;;3.60;1.70;;;;;;;22.32;40.22;97438.00;5040892;28;20510;-61
2023/07/06 11:46:58;;;;;;;7.57;2.00;;;;;;;22.33;40.14;97439.59;5030317;28;20437;-61
2023/07/06 11:49:41;;;;;;;3.53;1.80;;;;;;;22.51;39.29;97445.88;5039231;28;20094;-63
2023/07/06 11:52:24;;;;;;;5.30;2.03;;;;;;;22.99;39.37;97441.19;5046191;28;20048;-60
2023/07/06 11:55:14;;;;;;;3.58;1.50;;;;;;;23.17;38.43;97448.56;5040617;28;20556;-60